ENAL/AES METAR and TAF weather

Enter ICAO airport designator
Station Type Date Time Source
ENAL METAR 2022/12/05 15:50 UTC NOAA

ENAL 051550Z 01007KT 9999 BKN027 05/02 Q1025


Station Type Date Time Source
ENAL Decoded METAR 2022/12/05 15:50 UTC NOAA

Alesund / Vigra, Norway (ENAL) 62-34N 006-07E 22M
Dec 05, 2022 - 10:50 AM EST / 2022.12.05 1550 UTC
Wind: from the N (010 degrees) at 8 MPH (7 KT):0
Visibility: greater than 7 mile(s):0
Sky conditions: mostly cloudy
Temperature: 41 F (5 C)
Dew Point: 35 F (2 C)
Relative Humidity: 80%
Pressure (altimeter): 30.27 in. Hg (1025 hPa)
ob: ENAL 051550Z 01007KT 9999 BKN027 05/02 Q1025
cycle: 16

Station Type Date Time Source
ENAL TAF UTC NOAA

Error!

Example: see airport list